Time;durP1;ratioP1;P1;durP2;ratioP2;P2;SDS_P1;SDS_P2;PMS_P1;PMS_P2;Temp;Humidity;BMP_temperature;BMP_pressure;BME280_temperature;BME280_humidity;BME280_pressure;Samples;Min_cycle;Max_cycle;Signal;HPM_P1;HPM_P2
2023/02/10 07:28:07;;;;;;;33.27;12.37;;;;;;;-8.77;100.00;101195.81;5085333;27;20748;-79
2023/02/10 07:30:34;;;;;;;26.67;13.83;;;;;;;-8.65;100.00;101199.25;5061686;28;20051;-78
2023/02/10 07:33:00;;;;;;;27.20;12.47;;;;;;;-8.38;100.00;101217.41;5067763;28;20052;-78
2023/02/10 07:35:27;;;;;;;46.77;14.50;;;;;;;-8.29;100.00;101212.94;5067744;28;20053;-78
2023/02/10 07:37:53;;;;;;;39.03;16.30;;;;;;;-8.22;100.00;101209.34;5065874;28;20056;-77
2023/02/10 07:40:21;;;;;;;34.43;14.67;;;;;;;-8.16;100.00;101200.47;5067341;28;20064;-78
2023/02/10 07:42:48;;;;;;;41.93;16.20;;;;;;;-7.98;100.00;101199.41;5066269;28;20119;-78
2023/02/10 07:45:15;;;;;;;49.37;18.60;;;;;;;-7.83;100.00;101202.75;5067176;28;20045;-78
2023/02/10 07:47:42;;;;;;;40.70;17.80;;;;;;;-8.00;100.00;101168.63;5067541;28;20060;-78
2023/02/10 07:50:09;;;;;;;49.23;16.60;;;;;;;-7.83;100.00;101168.44;5067594;28;20075;-78
2023/02/10 07:52:35;;;;;;;49.53;17.73;;;;;;;-7.56;100.00;101203.28;5064494;28;20051;-78
2023/02/10 07:55:03;;;;;;;42.93;17.47;;;;;;;-7.55;100.00;101183.03;5062836;28;20488;-78
2023/02/10 07:57:30;;;;;;;45.97;16.37;;;;;;;-7.40;100.00;101200.47;5058804;28;20052;-78
2023/02/10 07:59:57;;;;;;;40.07;18.13;;;;;;;-7.43;100.00;101180.22;5067355;28;20053;-78
2023/02/10 08:02:25;;;;;;;42.73;18.30;;;;;;;-7.47;100.00;101176.78;5065815;28;20411;-78
2023/02/10 08:04:54;;;;;;;46.17;17.00;;;;;;;-7.39;100.00;101181.03;5067468;28;20051;-78
2023/02/10 08:07:20;;;;;;;45.15;17.17;;;;;;;-7.03;100.00;101207.84;5066905;28;20574;-78
2023/02/10 08:09:47;;;;;;;45.10;16.10;;;;;;;-7.00;100.00;101203.41;5047929;28;20119;-78
2023/02/10 08:12:13;;;;;;;50.43;18.97;;;;;;;-6.96;100.00;101204.22;5063528;28;20044;-78
2023/02/10 08:14:40;;;;;;;49.37;18.97;;;;;;;-6.92;100.00;101198.00;5063481;28;20049;-78
2023/02/10 08:17:06;;;;;;;44.23;18.97;;;;;;;-6.78;100.00;101206.56;5066898;28;20049;-78
2023/02/10 08:19:36;;;;;;;47.47;19.20;;;;;;;-6.76;100.00;101199.50;5066997;28;20078;-78
2023/02/10 08:22:02;;;;;;;45.33;19.08;;;;;;;-6.55;100.00;101213.25;5066716;28;20056;-78
2023/02/10 08:24:29;;;;;;;52.33;21.30;;;;;;;-6.61;100.00;101182.50;5055279;28;20048;-78
2023/02/10 08:26:55;;;;;;;67.60;23.90;;;;;;;-6.44;100.00;101199.84;5050514;28;20049;-79
2023/02/10 08:29:22;;;;;;;59.90;23.20;;;;;;;-6.14;100.00;101214.31;5050586;28;20053;-78
2023/02/10 08:31:49;;;;;;;72.20;22.00;;;;;;;-5.99;100.00;101220.19;5066856;28;20060;-78
2023/02/10 08:34:17;;;;;;;57.40;22.07;;;;;;;-5.92;100.00;101208.56;5065139;28;20489;-78
2023/02/10 08:36:45;;;;;;;72.23;24.20;;;;;;;-5.71;100.00;101208.13;5059988;28;20048;-78
2023/02/10 08:39:13;;;;;;;64.67;24.37;;;;;;;-5.75;100.00;101193.19;5044491;28;20049;-78
2023/02/10 08:41:40;;;;;;;62.20;20.57;;;;;;;-5.43;100.00;101204.91;5051432;28;20052;-78
2023/02/10 08:44:07;;;;;;;55.67;20.80;;;;;;;-5.29;100.00;101194.00;5050942;28;20052;-78
2023/02/10 08:46:35;;;;;;;61.30;22.33;;;;;;;-5.22;100.00;101185.00;5033388;28;20071;-78
2023/02/10 08:49:01;;;;;;;50.60;18.37;;;;;;;-4.93;100.00;101202.00;5035770;28;20053;-78
2023/02/10 08:51:28;;;;;;;42.70;19.13;;;;;;;-4.89;100.00;101178.91;5053334;28;20049;-78
2023/02/10 08:53:56;;;;;;;62.47;19.53;;;;;;;-4.55;100.00;101208.16;5052380;28;20120;-78
2023/02/10 08:56:23;;;;;;;44.40;19.77;;;;;;;-4.45;100.00;101211.47;5051241;28;20116;-78
2023/02/10 08:58:51;;;;;;;40.07;18.43;;;;;;;-4.40;100.00;101198.06;5052042;28;20080;-78
2023/02/10 09:01:19;;;;;;;50.10;20.27;;;;;;;-4.31;100.00;101203.13;5052960;28;20057;-79
2023/02/10 09:03:47;;;;;;;44.87;20.07;;;;;;;-4.15;100.00;101214.25;5043554;28;20049;-78
2023/02/10 09:06:15;;;;;;;54.63;20.10;;;;;;;-4.25;100.00;101184.38;5046436;28;20044;-79
2023/02/10 09:08:42;;;;;;;54.42;21.83;;;;;;;-4.05;100.00;101183.84;5052911;28;20063;-79
2023/02/10 09:11:11;;;;;;;47.57;19.37;;;;;;;-4.00;100.00;101183.72;5052883;28;20053;-78
2023/02/10 09:13:37;;;;;;;56.67;22.20;;;;;;;-3.79;100.00;101200.84;5052029;28;20049;-79
2023/02/10 09:16:04;;;;;;;44.60;20.97;;;;;;;-3.72;100.00;101186.47;5052805;28;20576;-79
2023/02/10 09:18:30;;;;;;;49.07;21.00;;;;;;;-3.59;100.00;101198.47;5043488;28;20061;-79
2023/02/10 09:20:57;;;;;;;48.00;19.23;;;;;;;-3.39;100.00;101228.94;5052689;28;20051;-78
2023/02/10 09:23:24;;;;;;;46.13;20.63;;;;;;;-3.44;100.00;101202.47;5051663;28;20056;-78
2023/02/10 09:25:53;;;;;;;45.50;19.97;;;;;;;-3.28;100.00;101210.88;5052540;28;20056;-79
2023/02/10 09:28:22;;;;;;;52.72;21.08;;;;;;;-3.30;100.00;101191.41;5052518;28;20047;-79
2023/02/10 09:30:49;;;;;;;44.10;19.73;;;;;;;-3.04;100.00;101205.69;5052446;28;20041;-79
2023/02/10 09:33:15;;;;;;;45.83;20.73;;;;;;;-2.91;100.00;101209.72;5049948;28;20060;-79
2023/02/10 09:35:42;;;;;;;56.30;21.37;;;;;;;-2.78;100.00;101223.53;5047481;28;20056;-79
2023/02/10 09:38:09;;;;;;;50.63;20.83;;;;;;;-2.86;100.00;101190.94;5042095;28;20049;-78
2023/02/10 09:40:50;;;;;;;48.57;21.20;;;;;;;-2.75;100.00;101210.13;5052499;28;20049;-78
2023/02/10 09:43:29;;;;;;;42.20;20.30;;;;;;;-2.73;100.00;101188.75;5051589;28;20052;-79
2023/02/10 09:46:02;;;;;;;50.17;20.25;;;;;;;-2.46;100.00;101212.75;5050646;28;20041;-78
2023/02/10 09:48:36;;;;;;;48.25;20.90;;;;;;;-2.62;100.00;101183.97;5051441;28;20056;-78
2023/02/10 09:51:12;;;;;;;45.70;20.35;;;;;;;-2.41;100.00;101201.03;5051114;28;20037;-78
2023/02/10 09:53:38;;;;;;;49.97;20.10;;;;;;;-2.34;100.00;101191.88;5046858;28;20045;-79
2023/02/10 09:56:06;;;;;;;46.95;20.08;;;;;;;-2.20;100.00;101191.41;5051192;28;20045;-78
2023/02/10 09:58:41;;;;;;;44.10;19.23;;;;;;;-2.04;100.00;101206.88;5050040;28;20049;-79
2023/02/10 10:01:16;;;;;;;35.00;18.13;;;;;;;-2.01;100.00;101198.75;5049546;28;20077;-79
2023/02/10 10:03:48;;;;;;;44.60;19.55;;;;;;;-1.94;100.00;101192.28;5044364;28;20045;-79
2023/02/10 10:06:23;;;;;;;41.20;19.88;;;;;;;-1.77;100.00;101215.66;5051448;28;20045;-79
2023/02/10 10:08:58;;;;;;;39.88;18.25;;;;;;;-1.74;100.00;101226.22;5050211;28;20396;-79
2023/02/10 10:11:29;;;;;;;42.42;19.30;;;;;;;-1.67;100.00;101219.75;5036726;28;20053;-79
2023/02/10 10:13:57;;;;;;;44.78;18.33;;;;;;;-1.61;100.00;101222.19;5049871;28;20154;-79
2023/02/10 10:16:41;;;;;;;40.40;18.45;;;;;;;-1.63;100.00;101208.00;5051354;28;20056;-79
2023/02/10 10:19:18;;;;;;;41.47;19.25;;;;;;;-1.46;100.00;101223.41;5051484;28;20045;-79
2023/02/10 10:21:53;;;;;;;36.67;17.23;;;;;;;-1.34;100.00;101221.19;5051290;28;20049;-79
2023/02/10 10:24:34;;;;;;;35.47;16.92;;;;;;;-1.30;100.00;101212.16;5049418;28;20413;-79
2023/02/10 10:27:13;;;;;;;41.67;19.02;;;;;;;-1.28;100.00;101210.28;5049049;28;20045;-77
2023/02/10 10:29:49;;;;;;;37.63;18.60;;;;;;;-1.16;100.00;101224.97;5047162;28;20572;-79
2023/02/10 10:32:18;;;;;;;46.42;18.88;;;;;;;-1.09;100.00;101213.13;5049770;28;20060;-80
2023/02/10 10:34:51;;;;;;;44.33;18.17;;;;;;;-1.06;100.00;101213.00;5040752;28;20045;-80
2023/02/10 10:37:20;;;;;;;41.75;17.77;;;;;;;-0.90;100.00;101215.94;5048552;28;20052;-80
2023/02/10 10:39:49;;;;;;;34.03;16.03;;;;;;;-0.77;100.00;101216.31;5047829;28;20057;-80
2023/02/10 10:42:23;;;;;;;46.47;18.65;;;;;;;-0.75;100.00;101209.13;5038553;28;20061;-80
2023/02/10 10:44:55;;;;;;;48.65;18.02;;;;;;;-0.74;100.00;101221.53;5048560;28;20045;-80
2023/02/10 10:47:30;;;;;;;38.38;17.13;;;;;;;-0.69;100.00;101191.94;5045358;28;20056;-80
2023/02/10 10:49:56;;;;;;;42.40;18.80;;;;;;;-0.49;100.00;101202.69;5048231;28;20063;-80
2023/02/10 10:52:28;;;;;;;40.22;18.33;;;;;;;-0.44;100.00;101197.16;5046720;28;20124;-80
2023/02/10 10:54:55;;;;;;;35.25;17.15;;;;;;;-0.30;100.00;101207.25;5050925;28;20124;-81
2023/02/10 10:57:23;;;;;;;37.30;17.70;;;;;;;-0.28;100.00;101190.22;5048390;28;20496;-81
2023/02/10 10:59:56;;;;;;;49.88;18.05;;;;;;;-0.22;97.22;101195.28;5047556;28;20049;-81
2023/02/10 11:02:24;;;;;;;32.13;15.02;;;;;;;-0.19;97.27;101199.66;5042544;28;20044;-81
2023/02/10 11:05:01;;;;;;;42.05;17.08;;;;;;;-0.15;96.88;101197.69;5048975;28;20107;-81
2023/02/10 11:07:31;;;;;;;39.05;18.67;;;;;;;-0.03;97.08;101199.84;5042178;28;20132;-81
2023/02/10 11:09:59;;;;;;;54.92;17.23;;;;;;;0.07;94.04;101197.66;5042825;28;20361;-80
2023/02/10 11:12:30;;;;;;;30.50;13.43;;;;;;;0.13;95.13;101198.22;5044203;28;20053;-81
2023/02/10 11:14:59;;;;;;;38.78;15.35;;;;;;;0.19;93.59;101185.53;5046383;28;20052;-81
2023/02/10 11:17:33;;;;;;;40.63;16.13;;;;;;;0.37;90.15;101191.88;5048408;28;20045;-81
2023/02/10 11:20:03;;;;;;;34.53;14.65;;;;;;;0.51;88.47;101197.44;5042773;28;20447;-81
2023/02/10 11:22:30;;;;;;;35.97;16.35;;;;;;;0.38;87.80;101174.84;5036054;28;20057;-81
2023/02/10 11:24:58;;;;;;;34.40;15.18;;;;;;;0.58;87.16;101198.03;5042359;28;20049;-81
2023/02/10 11:27:25;;;;;;;33.00;15.73;;;;;;;0.66;88.92;101187.84;5034500;28;20408;-81
2023/02/10 11:29:53;;;;;;;33.50;16.30;;;;;;;0.82;88.63;101198.69;5035621;28;20061;-81
2023/02/10 11:32:24;;;;;;;27.17;13.80;;;;;;;0.84;87.76;101202.16;5046942;28;20055;-81
2023/02/10 11:34:52;;;;;;;38.15;15.60;;;;;;;0.91;84.28;101187.53;5048656;28;20511;-81
2023/02/10 11:37:23;;;;;;;33.78;13.68;;;;;;;0.91;83.61;101187.53;5047186;28;20045;-81
2023/02/10 11:39:53;;;;;;;36.85;14.70;;;;;;;0.92;79.95;101175.91;5042569;28;20052;-81
2023/02/10 11:42:22;;;;;;;33.53;14.45;;;;;;;0.92;79.15;101169.66;5047029;28;20080;-81
2023/02/10 11:44:57;;;;;;;32.25;14.13;;;;;;;1.12;78.15;101188.31;5041791;28;20052;-81
2023/02/10 11:47:26;;;;;;;32.10;13.95;;;;;;;1.09;79.04;101175.06;5042903;28;20048;-81
2023/02/10 11:49:53;;;;;;;35.95;14.82;;;;;;;1.09;78.18;101160.81;5044909;28;20050;-81
2023/02/10 11:52:22;;;;;;;30.90;14.50;;;;;;;1.09;77.88;101156.31;5047797;28;20041;-81
2023/02/10 11:54:50;;;;;;;34.15;14.32;;;;;;;1.30;78.63;101180.34;5044122;28;20065;-81
2023/02/10 12:00:30;;;;;;;36.47;15.10;;;;;;;1.36;76.03;101150.53;5049030;28;20519;-80
2023/02/10 12:03:27;;;;;;;35.22;15.55;;;;;;;1.55;74.61;101172.81;5048464;28;20060;-81
2023/02/10 12:06:03;;;;;;;29.65;14.02;;;;;;;1.58;75.84;101171.75;5041110;28;20049;-81
2023/02/10 12:08:38;;;;;;;32.70;14.23;;;;;;;1.58;74.62;101145.84;5042279;28;20064;-81
2023/02/10 12:11:10;;;;;;;32.78;13.98;;;;;;;1.57;74.22;101143.22;5039097;28;20045;-81
2023/02/10 12:13:46;;;;;;;33.22;14.85;;;;;;;1.79;75.54;101167.09;5036324;28;20047;-81
2023/02/10 12:16:22;;;;;;;33.67;14.85;;;;;;;1.85;75.05;101163.25;5038924;28;20045;-80
2023/02/10 12:18:59;;;;;;;31.23;13.57;;;;;;;1.88;73.79;101149.66;5052576;28;20059;-81
2023/02/10 12:21:48;;;;;;;34.75;15.60;;;;;;;1.92;74.96;101149.44;5052535;28;20049;-81
2023/02/10 12:24:29;;;;;;;33.37;14.73;;;;;;;1.89;75.13;101128.13;5051270;28;20060;-80
2023/02/10 12:27:03;;;;;;;32.83;14.65;;;;;;;2.01;74.85;101131.97;5044408;28;20295;-81
2023/02/10 12:29:40;;;;;;;36.92;14.95;;;;;;;2.14;72.59;101145.63;5035666;28;20049;-81
2023/02/10 12:32:18;;;;;;;38.78;15.10;;;;;;;2.22;75.40;101137.16;5043248;28;20071;-81
2023/02/10 12:35:00;;;;;;;35.00;15.85;;;;;;;2.19;74.38;101111.34;5050451;28;20049;-81
2023/02/10 12:37:38;;;;;;;34.35;15.38;;;;;;;2.35;72.87;101115.88;5048925;28;20049;-81
2023/02/10 12:40:24;;;;;;;28.70;14.45;;;;;;;2.46;72.82;101122.38;5053329;28;20041;-81
2023/02/10 12:43:02;;;;;;;32.17;14.88;;;;;;;2.32;71.98;101095.44;5051013;28;20239;-81
2023/02/10 12:45:36;;;;;;;35.78;15.25;;;;;;;2.62;71.95;101125.09;5053039;28;20048;-81
2023/02/10 12:48:14;;;;;;;32.67;14.55;;;;;;;2.69;71.33;101114.88;5051729;28;20052;-81
2023/02/10 12:51:15;;;;;;;32.28;14.18;;;;;;;2.71;69.27;101109.41;5050609;28;20471;-81
2023/02/10 12:53:47;;;;;;;36.08;18.00;;;;;;;2.75;69.83;101116.34;5044710;28;20045;-81
2023/02/10 12:56:22;;;;;;;31.30;14.50;;;;;;;2.76;70.29;101097.44;5051219;28;20055;-81
2023/02/10 12:58:53;;;;;;;31.73;14.95;;;;;;;2.69;70.92;101104.13;5052152;28;20471;-81
2023/02/10 13:01:26;;;;;;;33.85;15.55;;;;;;;2.72;69.44;101098.56;5053045;28;20131;-81
2023/02/10 13:03:58;;;;;;;27.90;14.15;;;;;;;2.88;68.81;101114.69;5052578;28;20063;-81
2023/02/10 13:06:35;;;;;;;34.22;15.88;;;;;;;2.89;69.00;101105.69;5053115;28;20052;-80
2023/02/10 13:09:11;;;;;;;35.17;15.52;;;;;;;3.06;70.31;101119.97;5051879;28;20087;-81
2023/02/10 13:11:42;;;;;;;32.22;15.05;;;;;;;3.09;69.45;101109.06;5044336;28;20488;-81
2023/02/10 13:14:16;;;;;;;33.80;15.02;;;;;;;2.85;67.49;101104.13;5052120;28;20053;-81
2023/02/10 13:16:47;;;;;;;30.45;14.25;;;;;;;3.06;66.93;101107.41;5053031;28;20053;-81
2023/02/10 13:19:25;;;;;;;30.98;13.85;;;;;;;3.15;67.66;101114.06;5052851;28;20045;-81
2023/02/10 13:21:59;;;;;;;33.85;15.52;;;;;;;3.19;68.25;101105.72;5052805;28;20098;-81
2023/02/10 13:24:32;;;;;;;38.22;14.85;;;;;;;3.09;68.42;101082.19;5049407;28;20045;-81
2023/02/10 13:27:11;;;;;;;34.35;16.05;;;;;;;3.41;67.50;101111.66;5050377;28;20057;-81
2023/02/10 13:29:46;;;;;;;36.78;13.77;;;;;;;3.25;66.78;101092.88;5052200;28;20049;-81
2023/02/10 13:32:37;;;;;;;32.08;14.80;;;;;;;3.35;67.10;101094.91;5052160;28;20072;-81
2023/02/10 13:35:07;;;;;;;35.85;15.77;;;;;;;3.30;66.52;101098.88;5052554;28;20061;-81
2023/02/10 13:37:41;;;;;;;41.20;14.30;;;;;;;3.43;66.88;101110.59;5052325;28;20049;-82
2023/02/10 13:40:16;;;;;;;32.72;14.75;;;;;;;3.43;66.15;101109.75;5050190;28;20057;-81
2023/02/10 13:42:49;;;;;;;32.33;14.35;;;;;;;3.46;65.61;101091.63;5048104;28;20045;-81
2023/02/10 13:45:17;;;;;;;30.23;14.50;;;;;;;3.62;67.11;101096.91;5052335;28;20049;-81
2023/02/10 13:47:50;;;;;;;36.35;14.57;;;;;;;3.57;65.37;101077.53;5050307;28;20088;-81
2023/02/10 13:50:24;;;;;;;30.88;14.60;;;;;;;3.70;64.63;101096.44;5052022;28;20052;-82
2023/02/10 13:52:55;;;;;;;33.63;14.95;;;;;;;3.75;63.73;101115.00;5048327;28;20041;-81
2023/02/10 13:55:45;;;;;;;37.20;15.07;;;;;;;3.67;63.66;101089.47;5048819;28;20495;-82
2023/02/10 13:58:28;;;;;;;;;;;;;;;3.69;64.73;101103.66;5049231;28;20127;-82
2023/02/10 14:00:57;;;;;;;26.85;13.93;;;;;;;3.70;65.56;101109.91;5051904;28;19920;-81
2023/02/10 14:03:25;;;;;;;33.13;14.70;;;;;;;3.80;65.89;101108.38;5051244;28;20057;-82
2023/02/10 14:05:54;;;;;;;33.63;14.65;;;;;;;3.71;65.51;101076.66;5051752;28;20132;-82
2023/02/10 14:08:31;;;;;;;33.40;14.75;;;;;;;3.95;63.12;101105.72;5051135;28;20057;-82
2023/02/10 14:11:00;;;;;;;35.78;15.50;;;;;;;3.92;64.58;101100.53;5044521;28;20065;-81
2023/02/10 14:13:31;;;;;;;40.58;16.15;;;;;;;3.60;64.65;101089.91;5040395;28;20056;-82
2023/02/10 14:16:30;;;;;;;33.15;15.65;;;;;;;3.77;64.17;101097.81;5035186;28;20045;-81
2023/02/10 14:18:59;;;;;;;32.30;14.20;;;;;;;3.59;64.94;101067.53;5037718;28;20056;-82
2023/02/10 14:21:26;;;;;;;32.08;14.68;;;;;;;3.96;63.39;101099.38;5048312;28;20694;-81
2023/02/10 14:23:56;;;;;;;39.92;16.58;;;;;;;3.89;62.69;101080.91;5050418;28;20059;-82
2023/02/10 14:26:29;;;;;;;33.65;14.55;;;;;;;3.86;63.33;101073.03;5050366;28;20049;-81
2023/02/10 14:28:58;;;;;;;30.27;13.90;;;;;;;3.75;62.88;101072.84;5051635;28;20052;-82
2023/02/10 14:31:28;;;;;;;32.88;14.27;;;;;;;3.90;62.57;101098.78;5051484;28;20055;-81
2023/02/10 14:33:56;;;;;;;35.25;14.55;;;;;;;3.91;62.35;101105.03;5048648;28;20132;-81
2023/02/10 14:36:23;;;;;;;32.33;14.90;;;;;;;4.04;62.70;101099.78;5050616;28;20052;-81
2023/02/10 14:38:52;;;;;;;29.40;14.70;;;;;;;3.90;63.01;101077.28;5051598;28;20484;-81
2023/02/10 14:41:20;;;;;;;35.63;14.65;;;;;;;3.96;62.83;101051.81;5038501;28;20052;-81
2023/02/10 14:43:48;;;;;;;35.30;15.70;;;;;;;4.07;62.79;101070.81;5031029;28;20053;-81
2023/02/10 14:46:21;;;;;;;31.52;14.35;;;;;;;4.12;62.21;101070.53;5032770;28;20052;-81
2023/02/10 14:48:48;;;;;;;30.10;13.98;;;;;;;4.16;60.87;101076.59;5048695;28;20504;-81
2023/02/10 14:51:22;;;;;;;30.67;13.65;;;;;;;4.04;61.98;101092.56;5050971;28;20045;-81
2023/02/10 14:53:50;;;;;;;27.63;12.25;;;;;;;4.06;61.32;101065.53;5050579;28;20045;-81
2023/02/10 14:56:23;;;;;;;30.95;14.20;;;;;;;4.17;61.70;101081.00;5036098;28;20045;-81
2023/02/10 14:58:49;;;;;;;34.25;15.75;;;;;;;4.14;61.79;101081.19;5031272;28;20136;-81
2023/02/10 15:01:23;;;;;;;32.78;16.17;;;;;;;4.10;62.15;101071.63;5040305;28;20049;-81
2023/02/10 15:03:50;;;;;;;33.58;15.32;;;;;;;4.02;61.62;101085.53;5050946;28;20067;-81
2023/02/10 15:06:19;;;;;;;28.38;13.55;;;;;;;4.15;61.68;101097.25;5050217;28;20070;-81
2023/02/10 15:08:51;;;;;;;30.55;14.68;;;;;;;3.96;62.24;101083.22;5050694;28;20547;-81
2023/02/10 15:12:10;;;;;;;28.52;14.65;;;;;;;4.06;62.17;101082.56;5035254;28;20110;-81
2023/02/10 15:14:16;;;;;;;26.27;13.82;;;;;;;4.16;62.42;101088.22;5031166;28;20049;-81
2023/02/10 15:16:45;;;;;;;32.30;15.30;;;;;;;4.00;62.50;101074.84;5044273;28;20477;-82
2023/02/10 15:19:16;;;;;;;33.90;16.00;;;;;;;3.97;62.87;101058.03;5052754;28;20056;-80
2023/02/10 15:21:43;;;;;;;31.48;15.40;;;;;;;3.93;62.73;101049.31;5051821;28;20049;-80
2023/02/10 15:24:20;;;;;;;32.28;14.07;;;;;;;4.02;63.35;101077.44;5049733;28;20053;-80
2023/02/10 15:26:48;;;;;;;31.88;15.10;;;;;;;3.90;65.83;101085.34;5030636;28;20077;-80
2023/02/10 15:29:17;;;;;;;34.45;16.40;;;;;;;3.78;65.42;101069.06;5040582;28;20140;-80
2023/02/10 15:31:51;;;;;;;31.23;15.25;;;;;;;3.70;65.92;101061.47;5049629;28;20060;-80
2023/02/10 15:34:23;;;;;;;31.08;15.02;;;;;;;3.70;64.52;101074.94;5049138;28;20488;-80
2023/02/10 15:36:55;;;;;;;29.55;14.27;;;;;;;3.59;65.05;101077.44;5050345;28;20458;-80
2023/02/10 15:39:24;;;;;;;31.42;13.88;;;;;;;3.43;65.77;101083.69;5045604;28;20045;-80
2023/02/10 15:42:18;;;;;;;29.92;14.27;;;;;;;3.00;67.82;101041.44;5030434;28;20053;-80
2023/02/10 15:44:45;;;;;;;30.60;14.88;;;;;;;2.94;69.30;101057.91;5043518;28;20049;-80
2023/02/10 15:47:21;;;;;;;34.08;15.38;;;;;;;2.73;70.62;101046.59;5048737;28;20268;-80
2023/02/10 15:49:49;;;;;;;30.98;14.05;;;;;;;2.79;71.42;101078.47;5050521;28;20067;-80
2023/02/10 15:52:20;;;;;;;33.95;15.20;;;;;;;2.64;72.35;101068.63;5053463;28;20048;-80
2023/02/10 15:54:49;;;;;;;30.88;14.13;;;;;;;2.57;72.95;101076.13;5054260;28;20048;-80
2023/02/10 15:57:19;;;;;;;41.00;16.38;;;;;;;2.27;73.02;101054.56;5054130;28;20140;-80
2023/02/10 15:59:48;;;;;;;27.83;13.40;;;;;;;2.16;75.23;101060.53;5054347;28;20144;-80
2023/02/10 16:02:15;;;;;;;35.05;14.88;;;;;;;1.99;75.94;101057.88;5053551;28;20444;-80
2023/02/10 16:04:42;;;;;;;32.53;14.10;;;;;;;1.97;76.66;101075.91;5052947;28;20055;-80
2023/02/10 16:07:15;;;;;;;30.88;15.75;;;;;;;1.70;77.73;101054.97;5052354;28;20060;-80
2023/02/10 16:09:42;;;;;;;33.17;15.85;;;;;;;1.77;77.53;101067.09;5037591;28;20041;-80
2023/02/10 16:12:08;;;;;;;33.83;15.55;;;;;;;1.73;76.72;101071.78;5050442;28;20056;-80
2023/02/10 16:14:36;;;;;;;37.65;16.13;;;;;;;1.60;76.55;101070.69;5051797;28;20053;-80
2023/02/10 16:17:06;;;;;;;30.38;14.00;;;;;;;1.54;76.48;101071.88;5051524;28;20053;-80
2023/02/10 16:19:33;;;;;;;32.58;15.10;;;;;;;1.51;77.40;101093.47;5048189;28;20051;-80
2023/02/10 16:21:59;;;;;;;36.05;15.27;;;;;;;1.30;78.93;101065.09;5051387;28;20080;-80
2023/02/10 16:24:31;;;;;;;32.78;15.65;;;;;;;1.22;80.04;101073.53;5045484;28;20377;-80
2023/02/10 16:26:59;;;;;;;30.33;16.60;;;;;;;1.20;79.94;101086.97;5051703;28;20110;-80
2023/02/10 16:29:31;;;;;;;33.38;14.95;;;;;;;1.16;80.29;101089.91;5051941;28;20099;-80
2023/02/10 16:31:59;;;;;;;32.17;16.10;;;;;;;0.86;81.54;101063.72;5049469;28;20076;-80
2023/02/10 16:34:28;;;;;;;32.40;14.68;;;;;;;0.88;81.10;101093.97;5043026;28;20049;-80
2023/02/10 16:36:55;;;;;;;35.58;15.40;;;;;;;0.79;82.34;101094.41;5050860;28;20106;-80
2023/02/10 16:39:24;;;;;;;31.90;15.07;;;;;;;0.50;82.99;101054.72;5051202;28;20500;-80
2023/02/10 16:41:55;;;;;;;36.15;15.30;;;;;;;0.52;84.81;101073.38;5050682;28;20449;-80
2023/02/10 16:44:22;;;;;;;35.10;17.02;;;;;;;0.56;84.43;101088.38;5050545;28;20436;-80
2023/02/10 16:46:50;;;;;;;40.33;15.57;;;;;;;0.43;85.12;101087.22;5048367;28;20488;-80
2023/02/10 16:49:19;;;;;;;34.13;15.50;;;;;;;0.34;85.56;101086.69;5049155;28;20052;-80
2023/02/10 16:51:46;;;;;;;31.20;14.73;;;;;;;0.17;85.75;101082.13;5050984;28;20445;-79
2023/02/10 16:54:13;;;;;;;37.53;15.13;;;;;;;0.17;86.62;101090.16;5050302;28;20140;-80
2023/02/10 16:56:41;;;;;;;37.00;15.93;;;;;;;0.04;88.04;101091.66;5050318;28;20122;-79
2023/02/10 16:59:13;;;;;;;33.95;15.40;;;;;;;0.06;88.14;101092.47;5049951;28;20055;-79
2023/02/10 17:01:40;;;;;;;31.30;15.13;;;;;;;-0.15;88.00;101054.22;5051077;28;20106;-79
2023/02/10 17:04:07;;;;;;;31.38;14.55;;;;;;;-0.13;88.69;101079.06;5049991;28;20063;-79
2023/02/10 17:06:39;;;;;;;42.95;15.27;;;;;;;-0.16;88.66;101086.38;5040818;28;20052;-79
2023/02/10 17:09:05;;;;;;;35.63;15.35;;;;;;;-0.29;90.58;101088.72;5050525;28;20380;-80
2023/02/10 17:11:32;;;;;;;37.17;14.23;;;;;;;-0.35;90.98;101092.50;5050822;28;20073;-79
2023/02/10 17:13:58;;;;;;;32.47;13.65;;;;;;;-0.33;91.06;101103.13;5050685;28;20044;-80
2023/02/10 17:16:31;;;;;;;37.00;14.65;;;;;;;-0.44;91.71;101085.78;5050288;28;20081;-80
2023/02/10 17:18:57;;;;;;;33.03;13.82;;;;;;;-0.43;91.80;101089.34;5031224;28;20068;-80
2023/02/10 17:21:24;;;;;;;28.15;13.40;;;;;;;-0.55;92.66;101085.38;5043485;28;20059;-80
2023/02/10 17:23:52;;;;;;;34.42;14.80;;;;;;;-0.63;94.22;101100.84;5049015;28;20139;-80
2023/02/10 17:26:19;;;;;;;37.25;14.23;;;;;;;-0.66;95.35;101109.00;5049654;28;20135;-79
2023/02/10 17:28:45;;;;;;;35.53;14.75;;;;;;;-0.96;95.95;101086.22;5050818;28;20052;-80
2023/02/10 17:31:16;;;;;;;35.40;14.80;;;;;;;-1.04;96.63;101088.31;5050202;28;20045;-81
2023/02/10 17:33:48;;;;;;;38.10;15.70;;;;;;;-1.11;97.40;101078.84;5047955;28;20045;-80
2023/02/10 17:36:15;;;;;;;39.53;16.52;;;;;;;-1.09;97.95;101095.66;5049496;28;20515;-80
2023/02/10 17:38:48;;;;;;;32.88;15.70;;;;;;;-1.02;99.63;101123.84;5048847;28;20045;-81
2023/02/10 17:41:17;;;;;;;30.00;15.68;;;;;;;-1.16;100.00;101091.50;5044782;28;20064;-80
2023/02/10 17:43:44;;;;;;;33.35;14.68;;;;;;;-1.02;99.61;101120.28;5047258;28;20480;-81
2023/02/10 17:46:11;;;;;;;33.90;15.30;;;;;;;-1.05;100.00;101131.09;5046872;28;20455;-80
2023/02/10 17:48:39;;;;;;;31.33;14.50;;;;;;;-0.97;99.38;101127.19;5039485;28;20400;-81
2023/02/10 17:51:07;;;;;;;34.42;16.02;;;;;;;-1.28;99.47;101093.75;5045333;28;20087;-80
2023/02/10 17:53:34;;;;;;;36.20;15.70;;;;;;;-1.30;100.00;101105.41;5046393;28;20051;-80
2023/02/10 17:56:00;;;;;;;34.10;15.32;;;;;;;-1.32;100.00;101132.16;5047724;28;20508;-80
2023/02/10 17:58:53;;;;;;;33.35;16.02;;;;;;;-1.24;100.00;101137.19;5042142;28;20045;-80
2023/02/10 18:01:21;;;;;;;35.60;15.60;;;;;;;-1.32;100.00;101125.97;5035727;28;20049;-79
2023/02/10 18:03:48;;;;;;;32.40;15.60;;;;;;;-1.47;100.00;101114.94;5040416;28;20131;-80
2023/02/10 18:06:16;;;;;;;31.17;14.77;;;;;;;-1.69;100.00;101114.03;5046558;28;20586;-80
2023/02/10 18:08:42;;;;;;;34.38;15.38;;;;;;;-1.63;100.00;101113.81;5046641;28;20048;-80
2023/02/10 18:11:09;;;;;;;34.60;16.13;;;;;;;-1.56;100.00;101141.13;5048001;28;20052;-79
2023/02/10 18:13:35;;;;;;;34.63;15.50;;;;;;;-1.68;100.00;101134.47;5048026;28;20052;-80
2023/02/10 18:16:04;;;;;;;31.35;14.85;;;;;;;-1.66;100.00;101151.25;5047075;28;20066;-79
2023/02/10 18:18:31;;;;;;;36.50;16.30;;;;;;;-1.76;100.00;101136.53;5048148;28;20053;-81
2023/02/10 18:20:58;;;;;;;33.10;15.70;;;;;;;-1.82;100.00;101143.84;5048536;28;20270;-79
2023/02/10 18:23:25;;;;;;;63.08;28.63;;;;;;;-1.84;100.00;101142.16;5048710;28;20045;-80
2023/02/10 18:25:52;;;;;;;41.75;16.75;;;;;;;-1.69;100.00;101157.56;5036753;28;20084;-80
2023/02/10 18:28:18;;;;;;;35.30;15.55;;;;;;;-1.65;100.00;101159.19;5044442;28;20041;-80
2023/02/10 18:30:45;;;;;;;32.53;15.45;;;;;;;-1.92;100.00;101138.91;5046571;28;20037;-80
2023/02/10 18:33:14;;;;;;;34.42;14.93;;;;;;;-1.95;100.00;101147.88;5043956;28;20041;-80
2023/02/10 18:35:44;;;;;;;31.52;14.00;;;;;;;-1.78;100.00;101179.25;5044243;28;20064;-80
2023/02/10 18:38:14;;;;;;;32.13;14.13;;;;;;;-1.87;100.00;101155.59;5044946;28;20514;-80
2023/02/10 18:40:42;;;;;;;30.30;14.18;;;;;;;-2.06;100.00;101153.59;5043704;28;20060;-81
2023/02/10 18:43:09;;;;;;;39.72;17.98;;;;;;;-2.07;100.00;101167.00;5049792;28;20045;-80
2023/02/10 18:45:36;;;;;;;35.33;16.50;;;;;;;-2.17;100.00;101143.34;5047772;28;20459;-80
2023/02/10 18:48:03;;;;;;;38.20;17.08;;;;;;;-2.03;100.00;101156.16;5042846;28;20049;-80
2023/02/10 18:50:31;;;;;;;37.08;15.60;;;;;;;-2.06;100.00;101169.59;5046142;28;20049;-80
2023/02/10 18:52:58;;;;;;;37.55;16.38;;;;;;;-2.17;100.00;101155.78;5040022;28;20140;-80
2023/02/10 18:55:24;;;;;;;36.42;16.77;;;;;;;-2.24;100.00;101163.13;5044773;28;20061;-80